sensor_id;sensor_type;location;lat;lon;timestamp;pressure;altitude;pressure_sealevel;temperature;humidity
66430;BME280;53242;51.694;10.006;2023-01-26T00:01:31;100379.09;;;-0.34;82.51
66430;BME280;53242;51.694;10.006;2023-01-26T00:03:54;100385.31;;;-0.36;82.65
66430;BME280;53242;51.694;10.006;2023-01-26T00:06:18;100369.16;;;-0.14;82.21
66430;BME280;53242;51.694;10.006;2023-01-26T00:08:43;100367.16;;;-0.36;82.37
66430;BME280;53242;51.694;10.006;2023-01-26T00:11:07;100363.53;;;-0.21;82.01
66430;BME280;53242;51.694;10.006;2023-01-26T00:13:31;100365.63;;;-0.13;82.11
66430;BME280;53242;51.694;10.006;2023-01-26T00:15:53;100369.16;;;-0.14;82.24
66430;BME280;53242;51.694;10.006;2023-01-26T00:18:16;100364.66;;;-0.38;82.92
66430;BME280;53242;51.694;10.006;2023-01-26T00:20:38;100361.91;;;-0.22;82.33
66430;BME280;53242;51.694;10.006;2023-01-26T00:23:01;100358.84;;;-0.54;82.88
66430;BME280;53242;51.694;10.006;2023-01-26T00:25:24;100341.63;;;-0.55;83.31
66430;BME280;53242;51.694;10.006;2023-01-26T00:27:46;100344.50;;;-0.73;83.79
66430;BME280;53242;51.694;10.006;2023-01-26T00:30:08;100342.72;;;-0.72;83.51
66430;BME280;53242;51.694;10.006;2023-01-26T00:32:33;100345.44;;;-0.61;83.13
66430;BME280;53242;51.694;10.006;2023-01-26T00:34:56;100337.03;;;-0.64;83.17
66430;BME280;53242;51.694;10.006;2023-01-26T00:37:18;100336.03;;;-0.49;82.88
66430;BME280;53242;51.694;10.006;2023-01-26T00:39:41;100330.94;;;-0.51;82.68
66430;BME280;53242;51.694;10.006;2023-01-26T00:42:03;100330.75;;;-0.47;81.44
66430;BME280;53242;51.694;10.006;2023-01-26T00:44:31;100330.13;;;-0.38;81.73
66430;BME280;53242;51.694;10.006;2023-01-26T00:46:53;100320.69;;;-0.52;81.90
66430;BME280;53242;51.694;10.006;2023-01-26T00:49:16;100322.09;;;-0.74;82.71
66430;BME280;53242;51.694;10.006;2023-01-26T00:51:38;100324.63;;;-1.00;84.00
66430;BME280;53242;51.694;10.006;2023-01-26T00:54:01;100325.88;;;-1.05;84.15
66430;BME280;53242;51.694;10.006;2023-01-26T00:56:23;100323.75;;;-0.86;82.99
66430;BME280;53242;51.694;10.006;2023-01-26T00:58:49;100316.09;;;-0.74;82.64
66430;BME280;53242;51.694;10.006;2023-01-26T01:01:12;100317.66;;;-0.72;82.62
66430;BME280;53242;51.694;10.006;2023-01-26T01:03:37;100313.09;;;-0.81;83.08
66430;BME280;53242;51.694;10.006;2023-01-26T01:06:01;100314.69;;;-0.93;83.07
66430;BME280;53242;51.694;10.006;2023-01-26T01:08:25;100313.66;;;-0.90;83.05
66430;BME280;53242;51.694;10.006;2023-01-26T01:10:47;100300.53;;;-0.87;82.70
66430;BME280;53242;51.694;10.006;2023-01-26T01:13:09;100302.59;;;-0.79;82.48
66430;BME280;53242;51.694;10.006;2023-01-26T01:15:37;100304.97;;;-0.76;82.57
66430;BME280;53242;51.694;10.006;2023-01-26T01:17:59;100309.88;;;-0.59;82.22
66430;BME280;53242;51.694;10.006;2023-01-26T01:20:25;100322.56;;;-0.94;82.40
66430;BME280;53242;51.694;10.006;2023-01-26T01:22:49;100312.56;;;-0.86;82.46
66430;BME280;53242;51.694;10.006;2023-01-26T01:25:12;100323.81;;;-1.00;82.84
66430;BME280;53242;51.694;10.006;2023-01-26T01:27:35;100309.03;;;-1.12;83.46
66430;BME280;53242;51.694;10.006;2023-01-26T01:29:57;100315.19;;;-1.01;83.05
66430;BME280;53242;51.694;10.006;2023-01-26T01:32:20;100310.56;;;-0.83;82.20
66430;BME280;53242;51.694;10.006;2023-01-26T01:34:42;100317.47;;;-1.09;82.50
66430;BME280;53242;51.694;10.006;2023-01-26T01:37:07;100311.50;;;-0.96;82.63
66430;BME280;53242;51.694;10.006;2023-01-26T01:39:30;100318.00;;;-1.04;82.54
66430;BME280;53242;51.694;10.006;2023-01-26T01:41:52;100316.03;;;-1.00;82.25
66430;BME280;53242;51.694;10.006;2023-01-26T01:44:23;100304.66;;;-0.85;81.71
66430;BME280;53242;51.694;10.006;2023-01-26T01:47:02;100316.03;;;-1.00;82.39
66430;BME280;53242;51.694;10.006;2023-01-26T01:49:35;100313.22;;;-0.97;82.40
66430;BME280;53242;51.694;10.006;2023-01-26T01:52:19;100308.56;;;-1.05;82.51
66430;BME280;53242;51.694;10.006;2023-01-26T01:54:53;100299.38;;;-0.83;81.55
66430;BME280;53242;51.694;10.006;2023-01-26T01:57:23;100306.34;;;-0.84;80.98
66430;BME280;53242;51.694;10.006;2023-01-26T01:59:55;100302.22;;;-1.01;81.20
66430;BME280;53242;51.694;10.006;2023-01-26T02:02:19;100292.69;;;-1.13;81.20
66430;BME280;53242;51.694;10.006;2023-01-26T02:04:42;100290.53;;;-1.06;81.37
66430;BME280;53242;51.694;10.006;2023-01-26T02:07:05;100282.66;;;-0.92;80.96
66430;BME280;53242;51.694;10.006;2023-01-26T02:09:31;100281.31;;;-0.97;80.77
66430;BME280;53242;51.694;10.006;2023-01-26T02:12:14;100287.69;;;-1.16;81.04
66430;BME280;53242;51.694;10.006;2023-01-26T02:14:39;100282.50;;;-1.16;81.35
66430;BME280;53242;51.694;10.006;2023-01-26T02:17:02;100274.47;;;-0.98;80.51
66430;BME280;53242;51.694;10.006;2023-01-26T02:21:59;100275.91;;;-1.07;81.06
66430;BME280;53242;51.694;10.006;2023-01-26T02:24:32;100276.81;;;-1.08;80.97
66430;BME280;53242;51.694;10.006;2023-01-26T02:26:56;100279.06;;;-1.29;81.57
66430;BME280;53242;51.694;10.006;2023-01-26T02:29:19;100266.31;;;-1.33;81.39
66430;BME280;53242;51.694;10.006;2023-01-26T02:31:42;100268.69;;;-1.29;81.50
66430;BME280;53242;51.694;10.006;2023-01-26T02:34:05;100269.16;;;-1.10;81.04
66430;BME280;53242;51.694;10.006;2023-01-26T02:36:29;100271.22;;;-1.15;80.44
66430;BME280;53242;51.694;10.006;2023-01-26T02:41:41;100263.19;;;-1.38;80.83
66430;BME280;53242;51.694;10.006;2023-01-26T02:44:22;100256.25;;;-1.37;80.89
66430;BME280;53242;51.694;10.006;2023-01-26T02:46:46;100255.97;;;-1.33;80.58
66430;BME280;53242;51.694;10.006;2023-01-26T02:49:10;100267.84;;;-1.43;81.26
66430;BME280;53242;51.694;10.006;2023-01-26T02:51:52;100263.31;;;-1.54;81.20
66430;BME280;53242;51.694;10.006;2023-01-26T02:54:14;100275.09;;;-1.62;81.25
66430;BME280;53242;51.694;10.006;2023-01-26T02:56:57;100261.09;;;-1.45;81.33
66430;BME280;53242;51.694;10.006;2023-01-26T02:59:19;100263.22;;;-1.52;81.42
66430;BME280;53242;51.694;10.006;2023-01-26T03:01:42;100260.59;;;-1.38;80.82
66430;BME280;53242;51.694;10.006;2023-01-26T03:04:04;100263.94;;;-1.23;80.90
66430;BME280;53242;51.694;10.006;2023-01-26T03:06:27;100259.00;;;-1.13;79.71
66430;BME280;53242;51.694;10.006;2023-01-26T03:08:52;100259.06;;;-1.27;80.67
66430;BME280;53242;51.694;10.006;2023-01-26T03:11:18;100254.22;;;-1.19;80.72
66430;BME280;53242;51.694;10.006;2023-01-26T03:13:41;100261.00;;;-1.44;81.39
66430;BME280;53242;51.694;10.006;2023-01-26T03:16:07;100259.91;;;-1.54;81.67
66430;BME280;53242;51.694;10.006;2023-01-26T03:18:30;100260.72;;;-1.54;81.61
66430;BME280;53242;51.694;10.006;2023-01-26T03:21:24;100250.31;;;-1.39;81.17
66430;BME280;53242;51.694;10.006;2023-01-26T03:24:12;100250.81;;;-1.20;80.05
66430;BME280;53242;51.694;10.006;2023-01-26T03:26:54;100245.19;;;-1.26;79.83
66430;BME280;53242;51.694;10.006;2023-01-26T03:29:35;100244.19;;;-1.11;78.88
66430;BME280;53242;51.694;10.006;2023-01-26T03:31:58;100247.22;;;-1.04;79.07
66430;BME280;53242;51.694;10.006;2023-01-26T03:34:21;100235.28;;;-1.07;78.36
66430;BME280;53242;51.694;10.006;2023-01-26T03:36:44;100232.56;;;-1.18;79.12
66430;BME280;53242;51.694;10.006;2023-01-26T03:39:09;100231.50;;;-1.28;79.93
66430;BME280;53242;51.694;10.006;2023-01-26T03:41:52;100235.63;;;-1.39;80.29
66430;BME280;53242;51.694;10.006;2023-01-26T03:44:33;100234.34;;;-1.46;80.41
66430;BME280;53242;51.694;10.006;2023-01-26T03:47:14;100223.69;;;-1.54;79.77
66430;BME280;53242;51.694;10.006;2023-01-26T03:49:55;100232.38;;;-1.55;79.85
66430;BME280;53242;51.694;10.006;2023-01-26T03:52:36;100227.66;;;-1.36;79.39
66430;BME280;53242;51.694;10.006;2023-01-26T03:55:17;100229.63;;;-1.26;79.19
66430;BME280;53242;51.694;10.006;2023-01-26T03:57:58;100231.00;;;-1.61;80.50
66430;BME280;53242;51.694;10.006;2023-01-26T04:00:20;100236.47;;;-1.66;81.00
66430;BME280;53242;51.694;10.006;2023-01-26T04:02:46;100239.16;;;-1.40;80.31
66430;BME280;53242;51.694;10.006;2023-01-26T04:05:27;100236.09;;;-1.19;79.24
66430;BME280;53242;51.694;10.006;2023-01-26T04:08:08;100238.78;;;-1.61;80.70
66430;BME280;53242;51.694;10.006;2023-01-26T04:10:56;100225.44;;;-1.42;79.85
66430;BME280;53242;51.694;10.006;2023-01-26T04:13:22;100227.03;;;-1.26;79.56
66430;BME280;53242;51.694;10.006;2023-01-26T04:16:05;100234.88;;;-1.41;79.79
66430;BME280;53242;51.694;10.006;2023-01-26T04:18:46;100233.19;;;-1.27;78.68
66430;BME280;53242;51.694;10.006;2023-01-26T04:21:27;100238.06;;;-1.10;78.01
66430;BME280;53242;51.694;10.006;2023-01-26T04:23:58;100227.41;;;-1.18;78.39
66430;BME280;53242;51.694;10.006;2023-01-26T04:26:24;100233.31;;;-1.43;79.50
66430;BME280;53242;51.694;10.006;2023-01-26T04:28:48;100222.28;;;-1.33;79.17
66430;BME280;53242;51.694;10.006;2023-01-26T04:31:11;100231.81;;;-1.60;80.36
66430;BME280;53242;51.694;10.006;2023-01-26T04:33:34;100222.97;;;-1.43;79.76
66430;BME280;53242;51.694;10.006;2023-01-26T04:36:01;100226.47;;;-1.44;79.56
66430;BME280;53242;51.694;10.006;2023-01-26T04:38:24;100221.56;;;-1.35;79.61
66430;BME280;53242;51.694;10.006;2023-01-26T04:40:53;100216.03;;;-1.70;80.36
66430;BME280;53242;51.694;10.006;2023-01-26T04:43:16;100224.34;;;-1.38;80.17
66430;BME280;53242;51.694;10.006;2023-01-26T04:45:38;100210.84;;;-1.56;80.62
66430;BME280;53242;51.694;10.006;2023-01-26T04:48:01;100202.13;;;-1.55;80.71
66430;BME280;53242;51.694;10.006;2023-01-26T04:50:24;100195.22;;;-1.41;79.72
66430;BME280;53242;51.694;10.006;2023-01-26T04:52:46;100193.06;;;-1.35;79.79
66430;BME280;53242;51.694;10.006;2023-01-26T04:55:09;100199.34;;;-1.52;80.58
66430;BME280;53242;51.694;10.006;2023-01-26T04:57:33;100193.53;;;-1.55;80.98
66430;BME280;53242;51.694;10.006;2023-01-26T04:59:58;100186.25;;;-1.63;81.11
66430;BME280;53242;51.694;10.006;2023-01-26T05:02:21;100182.09;;;-1.66;81.09
66430;BME280;53242;51.694;10.006;2023-01-26T05:04:43;100183.84;;;-1.39;80.80
66430;BME280;53242;51.694;10.006;2023-01-26T05:07:06;100180.31;;;-1.51;81.28
66430;BME280;53242;51.694;10.006;2023-01-26T05:09:29;100175.13;;;-1.51;81.39
66430;BME280;53242;51.694;10.006;2023-01-26T05:12:08;100188.28;;;-1.41;80.87
66430;BME280;53242;51.694;10.006;2023-01-26T05:15:09;100188.31;;;-1.28;80.69
66430;BME280;53242;51.694;10.006;2023-01-26T05:17:57;100187.16;;;-1.37;80.80
66430;BME280;53242;51.694;10.006;2023-01-26T05:20:39;100183.84;;;-1.39;80.99
66430;BME280;53242;51.694;10.006;2023-01-26T05:23:12;100177.47;;;-1.07;80.47
66430;BME280;53242;51.694;10.006;2023-01-26T05:25:53;100185.22;;;-0.94;79.68
66430;BME280;53242;51.694;10.006;2023-01-26T05:28:16;100175.59;;;-1.18;79.87
66430;BME280;53242;51.694;10.006;2023-01-26T05:30:39;100176.53;;;-0.93;79.42
66430;BME280;53242;51.694;10.006;2023-01-26T05:33:06;100182.13;;;-1.00;79.72
66430;BME280;53242;51.694;10.006;2023-01-26T05:35:29;100183.88;;;-1.26;80.49
66430;BME280;53242;51.694;10.006;2023-01-26T05:37:52;100179.22;;;-0.95;79.82
66430;BME280;53242;51.694;10.006;2023-01-26T05:40:15;100177.69;;;-0.72;79.14
66430;BME280;53242;51.694;10.006;2023-01-26T05:42:37;100180.91;;;-0.81;79.05
66430;BME280;53242;51.694;10.006;2023-01-26T05:45:09;100181.09;;;-0.84;78.91
66430;BME280;53242;51.694;10.006;2023-01-26T05:47:34;100181.94;;;-0.96;79.46
66430;BME280;53242;51.694;10.006;2023-01-26T05:49:57;100183.38;;;-0.79;79.22
66430;BME280;53242;51.694;10.006;2023-01-26T05:52:23;100182.00;;;-0.59;78.22
66430;BME280;53242;51.694;10.006;2023-01-26T05:54:46;100189.50;;;-0.80;78.54
66430;BME280;53242;51.694;10.006;2023-01-26T05:57:09;100191.56;;;-0.73;78.50
66430;BME280;53242;51.694;10.006;2023-01-26T05:59:35;100191.56;;;-0.60;78.49
66430;BME280;53242;51.694;10.006;2023-01-26T06:01:58;100188.75;;;-0.70;78.46
66430;BME280;53242;51.694;10.006;2023-01-26T06:04:21;100194.38;;;-0.76;78.83
66430;BME280;53242;51.694;10.006;2023-01-26T06:06:48;100199.84;;;-0.80;78.88
66430;BME280;53242;51.694;10.006;2023-01-26T06:09:18;100196.13;;;-0.76;78.74
66430;BME280;53242;51.694;10.006;2023-01-26T06:12:20;100201.41;;;-0.65;78.74
66430;BME280;53242;51.694;10.006;2023-01-26T06:14:52;100199.97;;;-0.69;78.59
66430;BME280;53242;51.694;10.006;2023-01-26T06:17:16;100209.19;;;-0.65;78.47
66430;BME280;53242;51.694;10.006;2023-01-26T06:19:39;100200.25;;;-0.87;79.54
66430;BME280;53242;51.694;10.006;2023-01-26T06:22:03;100194.97;;;-0.85;79.63
66430;BME280;53242;51.694;10.006;2023-01-26T06:24:26;100203.28;;;-0.80;79.77
66430;BME280;53242;51.694;10.006;2023-01-26T06:26:48;100211.47;;;-0.99;80.48
66430;BME280;53242;51.694;10.006;2023-01-26T06:29:12;100212.19;;;-0.71;79.63
66430;BME280;53242;51.694;10.006;2023-01-26T06:31:36;100210.13;;;-0.79;79.89
66430;BME280;53242;51.694;10.006;2023-01-26T06:33:59;100208.03;;;-0.87;80.15
66430;BME280;53242;51.694;10.006;2023-01-26T06:36:22;100211.47;;;-0.99;80.33
66430;BME280;53242;51.694;10.006;2023-01-26T06:38:46;100221.19;;;-1.16;80.94
66430;BME280;53242;51.694;10.006;2023-01-26T06:41:09;100216.75;;;-0.88;80.39
66430;BME280;53242;51.694;10.006;2023-01-26T06:43:33;100224.44;;;-0.99;80.46
66430;BME280;53242;51.694;10.006;2023-01-26T06:45:56;100225.97;;;-1.09;81.13
66430;BME280;53242;51.694;10.006;2023-01-26T06:48:19;100230.13;;;-1.07;81.32
66430;BME280;53242;51.694;10.006;2023-01-26T06:50:43;100223.97;;;-1.19;81.56
66430;BME280;53242;51.694;10.006;2023-01-26T06:53:34;100224.47;;;-1.13;82.48
66430;BME280;53242;51.694;10.006;2023-01-26T06:56:12;100216.50;;;-1.23;83.04
66430;BME280;53242;51.694;10.006;2023-01-26T06:59:03;100210.59;;;-1.25;82.79
66430;BME280;53242;51.694;10.006;2023-01-26T07:01:44;100222.00;;;-1.15;82.91
66430;BME280;53242;51.694;10.006;2023-01-26T07:04:08;100222.00;;;-1.15;82.87
66430;BME280;53242;51.694;10.006;2023-01-26T07:06:31;100230.63;;;-1.02;82.95
66430;BME280;53242;51.694;10.006;2023-01-26T07:08:53;100214.56;;;-1.07;82.96
66430;BME280;53242;51.694;10.006;2023-01-26T07:11:15;100215.38;;;-1.06;82.91
66430;BME280;53242;51.694;10.006;2023-01-26T07:13:38;100220.16;;;-1.00;82.99
66430;BME280;53242;51.694;10.006;2023-01-26T07:16:03;100220.56;;;-1.06;82.80
66430;BME280;53242;51.694;10.006;2023-01-26T07:18:26;100226.19;;;-0.87;82.96
66430;BME280;53242;51.694;10.006;2023-01-26T07:20:48;100230.00;;;-1.05;82.80
66430;BME280;53242;51.694;10.006;2023-01-26T07:23:10;100228.13;;;-1.03;82.83
66430;BME280;53242;51.694;10.006;2023-01-26T07:25:33;100221.91;;;-1.13;82.97
66430;BME280;53242;51.694;10.006;2023-01-26T07:27:56;100221.84;;;-0.99;83.55
66430;BME280;53242;51.694;10.006;2023-01-26T07:30:19;100225.53;;;-1.03;83.56
66430;BME280;53242;51.694;10.006;2023-01-26T07:32:41;100231.47;;;-1.01;83.71
66430;BME280;53242;51.694;10.006;2023-01-26T07:35:04;100229.91;;;-1.04;83.75
66430;BME280;53242;51.694;10.006;2023-01-26T07:37:29;100237.38;;;-0.99;83.83
66430;BME280;53242;51.694;10.006;2023-01-26T07:39:52;100226.91;;;-0.97;84.04
66430;BME280;53242;51.694;10.006;2023-01-26T07:42:14;100234.59;;;-0.83;84.11
66430;BME280;53242;51.694;10.006;2023-01-26T07:44:51;100230.63;;;-1.02;83.80
66430;BME280;53242;51.694;10.006;2023-01-26T07:47:14;100232.41;;;-0.89;84.61
66430;BME280;53242;51.694;10.006;2023-01-26T07:49:36;100231.59;;;-0.90;84.84
66430;BME280;53242;51.694;10.006;2023-01-26T07:51:59;100237.59;;;-0.89;84.38
66430;BME280;53242;51.694;10.006;2023-01-26T07:54:21;100238.44;;;-0.89;84.35
66430;BME280;53242;51.694;10.006;2023-01-26T07:56:43;100240.47;;;-1.07;84.68
66430;BME280;53242;51.694;10.006;2023-01-26T07:59:18;100241.22;;;-0.92;84.84
66430;BME280;53242;51.694;10.006;2023-01-26T08:01:42;100236.72;;;-1.16;85.26
66430;BME280;53242;51.694;10.006;2023-01-26T08:04:04;100241.06;;;-1.16;85.97
66430;BME280;53242;51.694;10.006;2023-01-26T08:06:27;100242.75;;;-0.89;85.82
66430;BME280;53242;51.694;10.006;2023-01-26T08:08:50;100246.63;;;-0.82;85.72
66430;BME280;53242;51.694;10.006;2023-01-26T08:11:12;100246.91;;;-0.87;85.25
66430;BME280;53242;51.694;10.006;2023-01-26T08:13:35;100247.94;;;-0.89;85.79
66430;BME280;53242;51.694;10.006;2023-01-26T08:16:04;100243.94;;;-0.68;85.33
66430;BME280;53242;51.694;10.006;2023-01-26T08:18:27;100239.66;;;-0.69;84.92
66430;BME280;53242;51.694;10.006;2023-01-26T08:20:53;100247.78;;;-0.73;85.18
66430;BME280;53242;51.694;10.006;2023-01-26T08:23:16;100248.88;;;-0.77;85.02
66430;BME280;53242;51.694;10.006;2023-01-26T08:25:38;100248.19;;;-0.67;85.38
66430;BME280;53242;51.694;10.006;2023-01-26T08:28:01;100249.63;;;-0.50;85.17
66430;BME280;53242;51.694;10.006;2023-01-26T08:30:24;100248.66;;;-1.00;85.64
66430;BME280;53242;51.694;10.006;2023-01-26T08:32:47;100245.69;;;-0.94;85.77
66430;BME280;53242;51.694;10.006;2023-01-26T08:35:09;100239.34;;;-0.90;86.45
66430;BME280;53242;51.694;10.006;2023-01-26T08:37:32;100236.25;;;-0.69;85.83
66430;BME280;53242;51.694;10.006;2023-01-26T08:39:54;100234.81;;;-0.60;85.55
66430;BME280;53242;51.694;10.006;2023-01-26T08:42:17;100242.06;;;-0.91;86.16
66430;BME280;53242;51.694;10.006;2023-01-26T08:44:39;100238.50;;;-0.90;86.71
66430;BME280;53242;51.694;10.006;2023-01-26T08:47:01;100240.72;;;-0.71;86.04
66430;BME280;53242;51.694;10.006;2023-01-26T08:49:24;100238.72;;;-0.80;85.89
66430;BME280;53242;51.694;10.006;2023-01-26T08:51:46;100237.41;;;-0.73;85.66
66430;BME280;53242;51.694;10.006;2023-01-26T08:54:09;100229.41;;;-0.57;85.79
66430;BME280;53242;51.694;10.006;2023-01-26T08:56:31;100233.78;;;-0.71;85.73
66430;BME280;53242;51.694;10.006;2023-01-26T08:58:53;100235.31;;;-0.42;85.71
66430;BME280;53242;51.694;10.006;2023-01-26T09:01:16;100230.84;;;-0.40;85.40
66430;BME280;53242;51.694;10.006;2023-01-26T09:03:39;100237.16;;;-0.31;85.15
66430;BME280;53242;51.694;10.006;2023-01-26T09:06:03;100232.19;;;-0.35;85.15
66430;BME280;53242;51.694;10.006;2023-01-26T09:08:26;100237.97;;;-0.18;84.44
66430;BME280;53242;51.694;10.006;2023-01-26T09:10:48;100230.50;;;-0.10;84.50
66430;BME280;53242;51.694;10.006;2023-01-26T09:13:11;100230.88;;;-0.03;84.21
66430;BME280;53242;51.694;10.006;2023-01-26T09:15:36;100227.72;;;0.18;83.71
66430;BME280;53242;51.694;10.006;2023-01-26T09:17:58;100233.34;;;0.11;83.43
66430;BME280;53242;51.694;10.006;2023-01-26T09:20:21;100236.97;;;0.09;83.91
66430;BME280;53242;51.694;10.006;2023-01-26T09:22:44;100235.94;;;0.11;83.67
66430;BME280;53242;51.694;10.006;2023-01-26T09:25:07;100238.09;;;0.18;83.73
66430;BME280;53242;51.694;10.006;2023-01-26T09:27:29;100237.91;;;0.21;83.28
66430;BME280;53242;51.694;10.006;2023-01-26T09:29:52;100235.75;;;0.39;82.58
66430;BME280;53242;51.694;10.006;2023-01-26T09:32:15;100242.03;;;0.23;82.60
66430;BME280;53242;51.694;10.006;2023-01-26T09:34:37;100242.84;;;0.24;82.82
66430;BME280;53242;51.694;10.006;2023-01-26T09:36:59;100245.84;;;0.30;83.21
66430;BME280;53242;51.694;10.006;2023-01-26T09:39:22;100245.03;;;0.30;83.20
66430;BME280;53242;51.694;10.006;2023-01-26T09:44:47;100237.47;;;0.14;83.48
66430;BME280;53242;51.694;10.006;2023-01-26T09:47:14;100242.75;;;0.25;83.71
66430;BME280;53242;51.694;10.006;2023-01-26T09:49:45;100247.00;;;0.26;82.96
66430;BME280;53242;51.694;10.006;2023-01-26T09:52:27;100253.06;;;0.14;84.00
66430;BME280;53242;51.694;10.006;2023-01-26T09:54:53;100253.56;;;0.19;83.33
66430;BME280;53242;51.694;10.006;2023-01-26T09:57:44;100251.19;;;0.16;82.86
66430;BME280;53242;51.694;10.006;2023-01-26T10:00:15;100245.13;;;0.28;82.51
66430;BME280;53242;51.694;10.006;2023-01-26T10:05:50;100241.56;;;0.05;84.20
66430;BME280;53242;51.694;10.006;2023-01-26T10:08:34;100242.34;;;0.19;83.95
66430;BME280;53242;51.694;10.006;2023-01-26T10:11:00;100254.25;;;0.34;83.36
66430;BME280;53242;51.694;10.006;2023-01-26T10:13:23;100245.69;;;0.21;83.31
66430;BME280;53242;51.694;10.006;2023-01-26T10:16:01;100251.16;;;0.29;83.07
66430;BME280;53242;51.694;10.006;2023-01-26T10:18:31;100236.44;;;0.16;83.74
66430;BME280;53242;51.694;10.006;2023-01-26T10:20:55;100233.84;;;0.41;83.62
66430;BME280;53242;51.694;10.006;2023-01-26T10:23:29;100226.91;;;0.17;83.57
66430;BME280;53242;51.694;10.006;2023-01-26T10:25:53;100226.91;;;0.17;83.88
66430;BME280;53242;51.694;10.006;2023-01-26T10:28:21;100219.97;;;0.05;84.97
66430;BME280;53242;51.694;10.006;2023-01-26T10:30:47;100222.31;;;0.21;84.34
66430;BME280;53242;51.694;10.006;2023-01-26T10:33:19;100214.47;;;0.09;84.71
66430;BME280;53242;51.694;10.006;2023-01-26T10:35:44;100218.22;;;0.05;85.14
66430;BME280;53242;51.694;10.006;2023-01-26T10:40:54;100207.06;;;0.16;85.09
66430;BME280;53242;51.694;10.006;2023-01-26T10:43:17;100204.66;;;0.26;84.64
66430;BME280;53242;51.694;10.006;2023-01-26T10:45:45;100203.97;;;0.35;84.37
66430;BME280;53242;51.694;10.006;2023-01-26T10:48:22;100198.16;;;0.31;84.18
66430;BME280;53242;51.694;10.006;2023-01-26T10:50:48;100192.22;;;0.18;85.57
66430;BME280;53242;51.694;10.006;2023-01-26T10:53:25;100192.19;;;0.42;84.71
66430;BME280;53242;51.694;10.006;2023-01-26T10:56:02;100188.41;;;0.35;84.51
66430;BME280;53242;51.694;10.006;2023-01-26T10:58:43;100189.50;;;0.44;84.02
66430;BME280;53242;51.694;10.006;2023-01-26T11:01:10;100190.06;;;0.36;84.27
66430;BME280;53242;51.694;10.006;2023-01-26T11:03:37;100186.78;;;0.45;83.91
66430;BME280;53242;51.694;10.006;2023-01-26T11:06:14;100178.16;;;0.45;84.93
66430;BME280;53242;51.694;10.006;2023-01-26T11:08:38;100185.69;;;0.37;84.70
66430;BME280;53242;51.694;10.006;2023-01-26T11:11:01;100181.22;;;0.39;84.87
66430;BME280;53242;51.694;10.006;2023-01-26T11:13:24;100191.69;;;0.37;85.01
66430;BME280;53242;51.694;10.006;2023-01-26T11:18:40;100174.00;;;0.42;84.53
66430;BME280;53242;51.694;10.006;2023-01-26T11:21:11;100173.25;;;0.53;85.23
66430;BME280;53242;51.694;10.006;2023-01-26T11:26:49;100169.16;;;0.38;85.91
66430;BME280;53242;51.694;10.006;2023-01-26T11:35:19;100153.63;;;0.49;85.37
66430;BME280;53242;51.694;10.006;2023-01-26T11:37:48;100154.09;;;0.43;85.24
66430;BME280;53242;51.694;10.006;2023-01-26T11:40:36;100151.28;;;0.57;85.46
66430;BME280;53242;51.694;10.006;2023-01-26T11:46:32;100143.00;;;0.88;84.51
66430;BME280;53242;51.694;10.006;2023-01-26T11:51:53;100140.97;;;0.80;84.33
66430;BME280;53242;51.694;10.006;2023-01-26T11:59:38;100135.47;;;0.49;84.78
66430;BME280;53242;51.694;10.006;2023-01-26T12:02:13;100144.59;;;0.66;85.09
66430;BME280;53242;51.694;10.006;2023-01-26T12:04:43;100139.19;;;0.45;84.92
66430;BME280;53242;51.694;10.006;2023-01-26T12:07:16;100129.28;;;0.50;85.55
66430;BME280;53242;51.694;10.006;2023-01-26T12:09:46;100130.72;;;0.43;85.38
66430;BME280;53242;51.694;10.006;2023-01-26T12:12:34;100127.44;;;0.52;85.21
66430;BME280;53242;51.694;10.006;2023-01-26T12:18:11;100106.81;;;0.62;84.73
66430;BME280;53242;51.694;10.006;2023-01-26T12:20:41;100104.81;;;0.77;84.65
66430;BME280;53242;51.694;10.006;2023-01-26T12:25:36;100110.03;;;1.11;83.96
66430;BME280;53242;51.694;10.006;2023-01-26T12:28:23;100102.00;;;1.03;84.30
66430;BME280;53242;51.694;10.006;2023-01-26T12:33:26;100100.72;;;1.08;84.05
66430;BME280;53242;51.694;10.006;2023-01-26T12:39:07;100091.38;;;0.94;83.93
66430;BME280;53242;51.694;10.006;2023-01-26T12:42:09;100084.72;;;1.24;83.46
66430;BME280;53242;51.694;10.006;2023-01-26T12:44:39;100091.25;;;1.19;83.39
66430;BME280;53242;51.694;10.006;2023-01-26T12:47:22;100084.84;;;1.11;83.69
66430;BME280;53242;51.694;10.006;2023-01-26T12:52:17;100089.13;;;1.12;83.30
66430;BME280;53242;51.694;10.006;2023-01-26T12:54:52;100089.00;;;1.14;82.57
66430;BME280;53242;51.694;10.006;2023-01-26T12:57:22;100086.03;;;1.30;82.54
66430;BME280;53242;51.694;10.006;2023-01-26T12:59:46;100089.34;;;1.21;82.94
66430;BME280;53242;51.694;10.006;2023-01-26T13:04:35;100083.06;;;1.12;83.38
66430;BME280;53242;51.694;10.006;2023-01-26T13:10:09;100081.44;;;1.11;83.14
66430;BME280;53242;51.694;10.006;2023-01-26T13:15:18;100084.28;;;0.85;83.82
66430;BME280;53242;51.694;10.006;2023-01-26T13:17:48;100085.91;;;0.97;84.05
66430;BME280;53242;51.694;10.006;2023-01-26T13:20:22;100080.25;;;1.26;82.96
66430;BME280;53242;51.694;10.006;2023-01-26T13:22:45;100073.63;;;1.22;83.10
66430;BME280;53242;51.694;10.006;2023-01-26T13:30:00;100087.59;;;1.10;82.22
66430;BME280;53242;51.694;10.006;2023-01-26T13:34:59;100094.44;;;1.00;83.14
66430;BME280;53242;51.694;10.006;2023-01-26T13:40:31;100097.38;;;1.06;83.61
66430;BME280;53242;51.694;10.006;2023-01-26T13:43:39;100093.69;;;0.86;84.31
66430;BME280;53242;51.694;10.006;2023-01-26T13:48:49;100094.09;;;0.93;83.78
66430;BME280;53242;51.694;10.006;2023-01-26T13:51:15;100097.50;;;1.05;83.86
66430;BME280;53242;51.694;10.006;2023-01-26T13:53:40;100098.56;;;0.91;84.00
66430;BME280;53242;51.694;10.006;2023-01-26T13:56:14;100091.38;;;0.94;84.31
66430;BME280;53242;51.694;10.006;2023-01-26T13:58:40;100082.84;;;0.81;84.56